createdAt,value
2023-02-07T00:02:48.120Z,-3.44
2023-02-07T00:05:50.796Z,-3.45
2023-02-07T00:08:55.444Z,-3.50
2023-02-07T00:11:58.718Z,-3.34
2023-02-07T00:15:01.717Z,-3.46
2023-02-07T00:18:05.002Z,-3.63
2023-02-07T00:21:11.205Z,-3.39
2023-02-07T00:24:14.762Z,-3.36
2023-02-07T00:27:18.325Z,-3.29
2023-02-07T00:30:21.774Z,-3.26
2023-02-07T00:33:25.205Z,-3.34
2023-02-07T00:36:31.545Z,-3.34
2023-02-07T00:39:34.668Z,-3.32
2023-02-07T00:42:37.406Z,-3.36
2023-02-07T00:45:40.206Z,-3.34
2023-02-07T00:48:43.631Z,-3.27
2023-02-07T00:51:47.418Z,-3.28
2023-02-07T00:54:50.699Z,-3.28
2023-02-07T00:57:55.224Z,-3.29
2023-02-07T01:00:58.833Z,-3.34
2023-02-07T01:04:02.373Z,-3.38
2023-02-07T01:07:05.139Z,-3.25
2023-02-07T01:10:10.261Z,-3.30
2023-02-07T01:13:14.206Z,-3.28
2023-02-07T01:16:19.332Z,-3.39
2023-02-07T01:19:22.084Z,-3.38
2023-02-07T01:22:27.664Z,-3.43
2023-02-07T01:25:31.271Z,-3.41
2023-02-07T01:28:33.918Z,-3.37
2023-02-07T01:31:37.417Z,-3.39
2023-02-07T01:34:40.537Z,-3.36
2023-02-07T01:37:43.134Z,-3.34
2023-02-07T01:40:45.751Z,-3.33
2023-02-07T01:44:28.830Z,-3.39
2023-02-07T01:47:32.699Z,-3.53
2023-02-07T01:50:43.769Z,-3.50
2023-02-07T01:53:47.644Z,-3.63
2023-02-07T01:56:58.697Z,-3.64
2023-02-07T02:00:02.596Z,-3.61
2023-02-07T02:03:05.941Z,-3.59
2023-02-07T02:06:11.082Z,-3.53
2023-02-07T02:09:16.226Z,-3.50
2023-02-07T02:12:42.812Z,-3.65
2023-02-07T02:16:02.829Z,-3.65
2023-02-07T02:19:24.105Z,-3.65
2023-02-07T02:22:55.698Z,-3.71
2023-02-07T02:26:23.674Z,-3.70
2023-02-07T02:29:48.420Z,-3.71
2023-02-07T02:33:24.091Z,-3.82
2023-02-07T02:36:48.078Z,-3.81
2023-02-07T02:40:03.615Z,-3.87
2023-02-07T02:43:26.018Z,-4.15
2023-02-07T02:46:35.013Z,-4.36
2023-02-07T02:49:39.759Z,-4.26
2023-02-07T02:52:50.525Z,-4.06
2023-02-07T02:56:09.533Z,-4.05
2023-02-07T02:59:39.236Z,-3.95
2023-02-07T03:02:59.719Z,-4.03
2023-02-07T03:06:31.354Z,-3.99
2023-02-07T03:09:49.110Z,-3.94
2023-02-07T03:13:02.896Z,-3.93
2023-02-07T03:16:13.783Z,-3.86
2023-02-07T03:19:34.688Z,-3.93
2023-02-07T03:22:39.867Z,-3.98
2023-02-07T03:25:44.623Z,-4.05
2023-02-07T03:28:50.466Z,-4.04
2023-02-07T03:31:58.202Z,-4.03
2023-02-07T03:35:14.168Z,-3.95
2023-02-07T03:38:17.798Z,-3.95
2023-02-07T03:41:46.650Z,-4.02
2023-02-07T03:44:54.549Z,-4.04
2023-02-07T03:47:57.992Z,-4.15
2023-02-07T03:51:03.214Z,-4.08
2023-02-07T03:54:05.919Z,-4.08
2023-02-07T03:57:09.917Z,-4.11
2023-02-07T04:00:14.447Z,-4.15
2023-02-07T04:03:17.985Z,-4.12
2023-02-07T04:06:21.295Z,-4.11
2023-02-07T04:09:23.845Z,-4.07
2023-02-07T04:12:32.773Z,-4.10
2023-02-07T04:15:35.459Z,-4.08
2023-02-07T04:18:38.229Z,-4.13
2023-02-07T04:21:41.231Z,-4.19
2023-02-07T04:24:43.888Z,-4.19
2023-02-07T04:27:47.065Z,-4.24
2023-02-07T04:30:50.619Z,-4.20
2023-02-07T04:33:53.992Z,-4.32
2023-02-07T04:36:57.194Z,-4.31
2023-02-07T04:40:00.467Z,-4.28
2023-02-07T04:43:03.591Z,-4.30
2023-02-07T04:46:07.578Z,-4.33
2023-02-07T04:49:10.329Z,-4.18
2023-02-07T04:52:13.769Z,-4.49
2023-02-07T04:55:16.479Z,-4.42
2023-02-07T04:58:21.560Z,-4.35
2023-02-07T05:01:24.244Z,-4.30
2023-02-07T05:04:27.690Z,-4.32
2023-02-07T05:07:31.066Z,-4.25
2023-02-07T05:10:35.575Z,-4.28
2023-02-07T05:13:39.124Z,-4.40
2023-02-07T05:16:42.633Z,-4.36
2023-02-07T05:19:45.496Z,-4.47
2023-02-07T05:22:49.182Z,-4.47
2023-02-07T05:25:52.577Z,-4.45
2023-02-07T05:28:55.231Z,-4.40
2023-02-07T05:32:17.449Z,-4.36
2023-02-07T05:35:20.085Z,-4.14
2023-02-07T05:38:23.631Z,-4.17
2023-02-07T05:41:27.122Z,-4.04
2023-02-07T05:44:29.735Z,-4.09
2023-02-07T05:47:33.345Z,-4.14
2023-02-07T05:50:36.807Z,-4.18
2023-02-07T05:53:42.093Z,-4.21
2023-02-07T05:56:44.803Z,-4.24
2023-02-07T05:59:47.460Z,-4.21
2023-02-07T06:02:50.272Z,-4.28
2023-02-07T06:05:53.619Z,-4.22
2023-02-07T06:08:56.465Z,-4.08
2023-02-07T06:11:59.556Z,-4.05
2023-02-07T06:15:02.387Z,-4.19
2023-02-07T06:18:05.741Z,-4.13
2023-02-07T06:21:09.063Z,-4.19
2023-02-07T06:24:11.924Z,-4.18
2023-02-07T06:27:15.147Z,-4.02
2023-02-07T06:30:19.668Z,-4.06
2023-02-07T06:33:23.754Z,-4.03
2023-02-07T06:36:27.258Z,-4.03
2023-02-07T06:39:41.066Z,-3.91
2023-02-07T06:42:45.231Z,-3.78
2023-02-07T06:45:50.346Z,-3.71
2023-02-07T06:48:53.116Z,-3.79
2023-02-07T06:51:56.310Z,-3.71
2023-02-07T06:54:59.137Z,-3.66
2023-02-07T06:58:04.939Z,-3.62
2023-02-07T07:01:11.499Z,-3.70
2023-02-07T07:04:14.912Z,-3.62
2023-02-07T07:07:17.908Z,-3.51
2023-02-07T07:10:21.232Z,-3.55
2023-02-07T07:13:24.301Z,-3.52
2023-02-07T07:16:28.018Z,-3.47
2023-02-07T07:19:31.769Z,-3.39
2023-02-07T07:22:35.322Z,-3.31
2023-02-07T07:25:40.308Z,-3.46
2023-02-07T07:28:43.637Z,-3.13
2023-02-07T07:31:47.846Z,-2.91
2023-02-07T07:34:51.504Z,-2.97
2023-02-07T07:37:56.887Z,-3.09
2023-02-07T07:41:00.708Z,-3.03
2023-02-07T07:44:08.291Z,-2.94
2023-02-07T07:47:14.092Z,-2.72
2023-02-07T07:50:18.046Z,-2.74
2023-02-07T07:53:23.362Z,-2.61
2023-02-07T07:56:39.500Z,-2.38
2023-02-07T07:59:48.129Z,-2.24
2023-02-07T08:02:51.253Z,-2.11
2023-02-07T08:05:55.186Z,-2.11
2023-02-07T08:08:58.720Z,-2.05
2023-02-07T08:12:01.850Z,-1.91
2023-02-07T08:15:05.328Z,-1.88
2023-02-07T08:18:09.056Z,-1.75
2023-02-07T08:21:13.279Z,-1.67
2023-02-07T08:24:16.522Z,-1.60
2023-02-07T08:27:19.783Z,-1.57
2023-02-07T08:30:23.092Z,-1.48
2023-02-07T08:33:27.103Z,-1.57
2023-02-07T08:36:31.686Z,-1.53
2023-02-07T08:39:36.239Z,-1.56
2023-02-07T08:42:39.388Z,-1.50
2023-02-07T08:46:01.574Z,-1.31
2023-02-07T08:49:12.737Z,-1.30
2023-02-07T08:52:18.409Z,-1.22
2023-02-07T08:55:21.317Z,-1.18
2023-02-07T08:58:25.566Z,-1.10
2023-02-07T09:01:28.544Z,-1.03
2023-02-07T09:04:36.578Z,-0.93
2023-02-07T09:07:39.662Z,-0.88
2023-02-07T09:10:48.109Z,-0.76
2023-02-07T09:13:51.507Z,-0.58
2023-02-07T09:16:57.948Z,-0.66
2023-02-07T09:20:02.015Z,-0.42
2023-02-07T09:23:20.074Z,-0.27
2023-02-07T09:26:26.626Z,-0.21
2023-02-07T09:29:29.395Z,-0.35
2023-02-07T09:32:32.285Z,0.03
2023-02-07T09:35:50.473Z,0.25
2023-02-07T09:39:00.592Z,0.20
2023-02-07T09:42:48.547Z,0.44
2023-02-07T09:45:56.970Z,0.49
2023-02-07T09:49:14.578Z,0.56
2023-02-07T09:52:32.319Z,0.66
2023-02-07T09:55:49.057Z,0.60
2023-02-07T09:59:31.616Z,0.73
2023-02-07T10:02:52.499Z,0.97
2023-02-07T10:06:17.410Z,0.64
2023-02-07T10:09:33.941Z,1.01
2023-02-07T10:13:02.185Z,1.11
2023-02-07T10:16:34.215Z,1.23
2023-02-07T10:20:03.664Z,1.33
2023-02-07T10:23:46.257Z,1.39
2023-02-07T10:27:01.467Z,1.57
2023-02-07T10:30:53.892Z,1.65
2023-02-07T10:35:18.935Z,1.46
2023-02-07T10:38:39.669Z,1.82
2023-02-07T10:41:45.028Z,1.57
2023-02-07T10:49:25.790Z,1.70
2023-02-07T10:52:47.150Z,2.07
2023-02-07T10:56:09.559Z,2.14
2023-02-07T10:59:49.163Z,2.05
2023-02-07T11:03:04.336Z,2.07
2023-02-07T11:06:10.283Z,2.05
2023-02-07T11:09:21.521Z,2.12
2023-02-07T11:12:28.070Z,1.93
2023-02-07T11:15:47.729Z,1.96
2023-02-07T11:19:29.866Z,2.05
2023-02-07T11:22:44.968Z,1.98
2023-02-07T11:25:56.504Z,2.02
2023-02-07T11:29:14.241Z,1.81
2023-02-07T11:32:22.861Z,1.88
2023-02-07T11:35:34.291Z,2.10
2023-02-07T11:38:46.581Z,2.32
2023-02-07T11:42:00.705Z,2.84
2023-02-07T11:45:13.543Z,2.53
2023-02-07T11:48:21.765Z,2.43
2023-02-07T11:51:35.268Z,2.75
2023-02-07T11:54:50.066Z,2.78
2023-02-07T11:57:59.142Z,2.68
2023-02-07T12:01:05.131Z,2.95
2023-02-07T12:04:12.958Z,3.31
2023-02-07T12:07:26.572Z,3.48
2023-02-07T12:10:37.295Z,3.44
2023-02-07T12:13:51.154Z,3.52
2023-02-07T12:17:09.494Z,3.37
2023-02-07T12:20:26.156Z,3.42
2023-02-07T12:23:47.001Z,3.63
2023-02-07T12:26:58.907Z,3.11
2023-02-07T12:30:16.527Z,3.53
2023-02-07T12:33:41.768Z,3.80
2023-02-07T12:36:50.325Z,3.65
2023-02-07T12:40:01.570Z,3.20
2023-02-07T12:43:13.668Z,3.35
2023-02-07T12:46:39.929Z,3.15
2023-02-07T12:50:12.154Z,3.50
2023-02-07T12:58:54.497Z,2.93
2023-02-07T13:03:00.814Z,2.89
2023-02-07T13:06:33.622Z,3.00
2023-02-07T13:09:41.917Z,2.81
2023-02-07T13:12:47.186Z,2.84
2023-02-07T13:16:02.701Z,2.99
2023-02-07T13:19:24.368Z,2.80
2023-02-07T13:22:37.201Z,2.87
2023-02-07T13:25:46.167Z,2.69
2023-02-07T13:28:58.937Z,2.40
2023-02-07T13:32:06.366Z,2.51
2023-02-07T13:35:23.437Z,2.69
2023-02-07T13:38:51.335Z,2.50
2023-02-07T13:42:24.094Z,2.64
2023-02-07T13:45:33.081Z,2.68
2023-02-07T13:48:56.963Z,2.71
2023-02-07T14:02:01.530Z,2.68
2023-02-07T14:05:11.328Z,2.80
2023-02-07T14:08:17.742Z,2.89
2023-02-07T14:11:41.780Z,2.42
2023-02-07T14:15:00.406Z,2.26
2023-02-07T14:18:26.817Z,2.58
2023-02-07T14:21:38.469Z,2.61
2023-02-07T14:24:51.289Z,2.20
2023-02-07T14:28:18.967Z,2.60
2023-02-07T14:31:24.693Z,2.66
2023-02-07T14:34:32.641Z,2.66
2023-02-07T14:38:00.762Z,2.63
2023-02-07T14:41:16.603Z,2.51
2023-02-07T14:44:28.124Z,2.56
2023-02-07T14:47:31.956Z,2.51
2023-02-07T14:50:35.707Z,2.51
2023-02-07T14:53:41.149Z,2.50
2023-02-07T14:56:49.753Z,2.33
2023-02-07T15:00:54.368Z,2.28
2023-02-07T15:04:45.887Z,2.22
2023-02-07T15:08:06.522Z,2.17
2023-02-07T15:11:15.136Z,2.23
2023-02-07T15:14:22.216Z,2.22
2023-02-07T15:17:33.351Z,2.04
2023-02-07T15:20:43.125Z,2.08
2023-02-07T15:24:03.004Z,2.03
2023-02-07T15:27:08.244Z,1.99
2023-02-07T15:30:18.811Z,1.97
2023-02-07T15:33:24.832Z,1.95
2023-02-07T15:36:34.084Z,1.87
2023-02-07T15:39:36.896Z,1.91
2023-02-07T15:42:54.398Z,1.81
2023-02-07T15:46:09.055Z,1.66
2023-02-07T15:49:29.168Z,1.65
2023-02-07T15:52:35.128Z,1.56
2023-02-07T15:55:44.319Z,1.20
2023-02-07T15:58:49.550Z,1.16
2023-02-07T16:02:01.521Z,1.21
2023-02-07T16:05:16.656Z,1.44
2023-02-07T16:08:39.948Z,1.21
2023-02-07T16:11:43.363Z,1.23
2023-02-07T16:14:46.700Z,1.23
2023-02-07T16:17:49.902Z,1.21
2023-02-07T16:20:53.630Z,1.18
2023-02-07T16:24:05.677Z,1.23
2023-02-07T16:27:15.018Z,1.18
2023-02-07T16:30:25.128Z,1.10
2023-02-07T16:33:29.013Z,0.99
2023-02-07T16:36:31.754Z,1.12
2023-02-07T16:39:34.638Z,1.06
2023-02-07T16:42:39.477Z,0.95
2023-02-07T16:45:42.985Z,0.83
2023-02-07T16:48:45.691Z,0.73
2023-02-07T16:51:48.843Z,0.72
2023-02-07T16:54:51.661Z,0.77
2023-02-07T16:57:56.693Z,0.92
2023-02-07T17:01:01.348Z,0.63
2023-02-07T17:04:04.620Z,0.84
2023-02-07T17:07:11.271Z,0.89
2023-02-07T17:10:26.047Z,0.82
2023-02-07T17:13:28.929Z,0.67
2023-02-07T17:16:33.524Z,0.67
2023-02-07T17:19:37.218Z,0.35
2023-02-07T17:22:40.271Z,0.41
2023-02-07T17:25:44.457Z,0.48
2023-02-07T17:28:48.719Z,0.43
2023-02-07T17:31:52.667Z,0.34
2023-02-07T17:34:57.092Z,0.19
2023-02-07T17:38:00.705Z,0.17
2023-02-07T17:41:03.801Z,0.07
2023-02-07T17:44:07.661Z,0.06
2023-02-07T17:47:11.679Z,0.09
2023-02-07T17:50:21.527Z,0.13
2023-02-07T17:53:24.940Z,-0.02
2023-02-07T17:56:30.494Z,-0.02
2023-02-07T17:59:34.521Z,-0.13
2023-02-07T18:02:38.172Z,-0.02
2023-02-07T18:05:43.066Z,-0.04
2023-02-07T18:08:47.016Z,-0.27
2023-02-07T18:11:50.598Z,-0.17
2023-02-07T18:14:55.712Z,-0.27
2023-02-07T18:18:00.072Z,-0.48
2023-02-07T18:21:05.116Z,-0.58
2023-02-07T18:24:09.160Z,-0.62
2023-02-07T18:27:17.194Z,-0.46
2023-02-07T18:30:23.799Z,-0.51
2023-02-07T18:33:30.427Z,-0.50
2023-02-07T18:36:40.616Z,-0.59
2023-02-07T18:39:44.772Z,-0.66
2023-02-07T18:42:48.047Z,-0.70
2023-02-07T18:45:51.228Z,-0.78
2023-02-07T18:48:56.003Z,-0.80
2023-02-07T18:51:59.086Z,-0.70
2023-02-07T18:55:04.356Z,-0.79
2023-02-07T18:58:07.735Z,-0.75
2023-02-07T19:01:15.370Z,-0.75
2023-02-07T19:04:18.696Z,-0.85
2023-02-07T19:07:22.586Z,-0.93
2023-02-07T19:10:26.896Z,-0.96
2023-02-07T19:13:30.678Z,-1.00
2023-02-07T19:16:33.667Z,-1.02
2023-02-07T19:19:36.938Z,-0.92
2023-02-07T19:22:40.184Z,-0.90
2023-02-07T19:25:49.355Z,-1.00
2023-02-07T19:28:52.960Z,-1.02
2023-02-07T19:32:04.312Z,-0.99
2023-02-07T19:35:08.330Z,-0.96
2023-02-07T19:38:11.255Z,-0.99
2023-02-07T19:41:17.148Z,-1.00
2023-02-07T19:44:21.007Z,-1.06
2023-02-07T19:47:23.894Z,-1.04
2023-02-07T19:50:28.042Z,-1.16
2023-02-07T19:53:32.205Z,-1.15
2023-02-07T19:56:36.620Z,-1.15
2023-02-07T19:59:39.680Z,-1.21
2023-02-07T20:02:43.634Z,-1.21
2023-02-07T20:05:47.126Z,-1.32
2023-02-07T20:08:51.829Z,-1.32
2023-02-07T20:11:55.156Z,-1.33
2023-02-07T20:14:58.567Z,-1.30
2023-02-07T20:18:01.481Z,-1.24
2023-02-07T20:21:11.472Z,-1.16
2023-02-07T20:24:15.759Z,-1.18
2023-02-07T20:27:22.585Z,-1.17
2023-02-07T20:30:26.532Z,-1.09
2023-02-07T20:33:30.125Z,-1.20
2023-02-07T20:36:40.854Z,-1.23
2023-02-07T20:39:44.680Z,-1.20
2023-02-07T20:42:48.951Z,-1.23
2023-02-07T20:45:52.048Z,-1.31
2023-02-07T20:48:58.613Z,-1.30
2023-02-07T20:52:03.165Z,-1.29
2023-02-07T20:55:08.410Z,-1.44
2023-02-07T20:58:12.048Z,-1.30
2023-02-07T21:01:21.247Z,-1.45
2023-02-07T21:04:26.613Z,-1.38
2023-02-07T21:07:29.401Z,-1.41
2023-02-07T21:10:33.854Z,-1.38
2023-02-07T21:13:37.934Z,-1.38
2023-02-07T21:16:41.247Z,-1.52
2023-02-07T21:19:43.909Z,-1.60
2023-02-07T21:22:47.711Z,-1.56
2023-02-07T21:25:50.875Z,-1.49
2023-02-07T21:29:01.057Z,-1.51
2023-02-07T21:32:04.367Z,-1.59
2023-02-07T21:35:07.815Z,-1.51
2023-02-07T21:38:11.679Z,-1.51
2023-02-07T21:41:15.861Z,-1.64
2023-02-07T21:44:21.277Z,-1.51
2023-02-07T21:47:23.895Z,-1.56
2023-02-07T21:50:26.517Z,-1.63
2023-02-07T21:53:29.786Z,-1.59
2023-02-07T21:56:34.465Z,-1.58
2023-02-07T21:59:37.804Z,-1.53
2023-02-07T22:02:41.189Z,-1.61
2023-02-07T22:05:44.748Z,-1.69
2023-02-07T22:08:53.453Z,-1.73
2023-02-07T22:11:56.424Z,-1.82
2023-02-07T22:14:59.142Z,-1.77
2023-02-07T22:18:02.965Z,-1.73
2023-02-07T22:21:09.618Z,-1.74
2023-02-07T22:24:14.673Z,-1.95
2023-02-07T22:27:18.298Z,-1.87
2023-02-07T22:30:20.902Z,-1.86
2023-02-07T22:33:23.664Z,-1.83
2023-02-07T22:36:29.214Z,-1.84
2023-02-07T22:39:32.148Z,-1.90
2023-02-07T22:42:35.792Z,-1.99
2023-02-07T22:45:39.481Z,-2.05
2023-02-07T22:48:43.029Z,-2.06
2023-02-07T22:51:46.912Z,-2.05
2023-02-07T22:54:49.651Z,-2.02
2023-02-07T22:57:53.034Z,-2.13
2023-02-07T23:00:56.051Z,-2.11
2023-02-07T23:03:59.420Z,-2.14
2023-02-07T23:07:02.885Z,-2.21
2023-02-07T23:10:07.653Z,-2.23
2023-02-07T23:13:15.092Z,-2.18
2023-02-07T23:16:23.688Z,-2.18
2023-02-07T23:19:26.577Z,-2.13
2023-02-07T23:22:29.404Z,-2.15
2023-02-07T23:25:32.038Z,-2.16
2023-02-07T23:28:37.213Z,-2.23
2023-02-07T23:31:40.907Z,-2.24
2023-02-07T23:34:43.623Z,-2.24
2023-02-07T23:37:46.206Z,-2.30
2023-02-07T23:40:50.318Z,-2.20
2023-02-07T23:43:53.462Z,-2.24
2023-02-07T23:46:56.100Z,-2.23
2023-02-07T23:49:58.828Z,-2.18
2023-02-07T23:53:01.765Z,-2.05
2023-02-07T23:56:06.077Z,-2.07
2023-02-07T23:59:12.056Z,-2.12
